Sea Cloud II — 9HUE6 — position and weather

sailwx.info

Track history (hours):
 
Tides and Currents Weather Stations Pressure Air Temp Water Temp Dewpoint Dewpoint Depression Visibility Wind Speed Wind Dir Waves Ship Positions

Sea Cloud II

Ship's website: http://www.seacloud.com/en/the-ships/sea-cloud-ii.html

Last reported at 2015-Sep-01 16:24 UTC. Time now 2015-Sep-03 23:31 UTC.
Position N 36°41' W 008°08'.

Length 117 m; draft 6 m.

Type: Passenger vessel. MMSI: 248953000.

Date/timePositionNaut miles runAvg speedWind from/ knotsBaromVisibWave heightAir tempDewpointWater temp
2015-Sep-01 16:24N 36°41' W 008°08'87 5.4
2015-Sep-01 00:12N 37°39' W 009°30'812.2
2015-Aug-31 23:33N 37°47' W 009°29'1212.3
2015-Aug-31 22:33N 37°59' W 009°28'1312.6
2015-Aug-31 21:33N 38°11' W 009°26'1211.9
2015-Aug-31 20:33N 38°23' W 009°25'1212.1
2015-Aug-31 19:33N 38°35' W 009°24'1110.7
2015-Aug-31 18:33N 38°41' W 009°12'4 3.5
2015-Aug-31 17:25N 38°43' W 009°07'0 0.0
2015-Aug-31 15:04N 38°43' W 009°07'0 0.0
2015-Aug-31 13:22N 38°43' W 009°07'0 0.0
2015-Aug-31 12:04N 38°43' W 009°07'0 0.0
2015-Aug-31 11:28N 38°43' W 009°07'0 0.0
2015-Aug-31 10:22N 38°43' W 009°07'0 0.0
2015-Aug-31 09:28N 38°43' W 009°07'0 0.0
2015-Aug-31 08:04N 38°43' W 009°07'0 0.0
2015-Aug-31 07:16N 38°43' W 009°07'4 5.1
2015-Aug-31 06:33N 38°41' W 009°12'6 6.3
2015-Aug-31 05:33N 38°39' W 009°19'8 7.8
2015-Aug-31 04:33N 38°37' W 009°29'1111.2
2015-Aug-31 03:33N 38°40' W 009°43'1212.0
2015-Aug-31 02:33N 38°52' W 009°44'1211.9
2015-Aug-31 01:33N 39°04' W 009°43'1211.8
2015-Aug-31 00:33N 39°16' W 009°43'6412.2
2015-Aug-30 19:21N 40°16' W 009°16'1012.6
2015-Aug-30 18:33N 40°25' W 009°10'51 3.8
2015-Aug-30 05:06N 41°14' W 008°51'4 6.5
2015-Aug-30 04:33N 41°17' W 008°52'7 6.7
2015-Aug-30 03:33N 41°24' W 008°55'7 6.6
2015-Aug-30 02:33N 41°30' W 008°57'7 6.5
2015-Aug-30 01:33N 41°36' W 008°60'6 6.4
2015-Aug-30 00:33N 41°42' W 009°02'7 6.5
2015-Aug-29 23:32N 41°49' W 009°04'9 7.2
2015-Aug-29 22:19N 41°57' W 009°03'  
2015-Aug-27 06:12N 43°46' W 005°53'6 8.7
2015-Aug-27 05:32N 43°45' W 005°45'1010.3
2015-Aug-27 04:32N 43°44' W 005°31'1010.2
2015-Aug-27 03:33N 43°43' W 005°17'1010.3
2015-Aug-27 02:33N 43°42' W 005°03'90 3.8
2015-Aug-26 02:31N 43°34' W 002°59'69 6.8
2015-Aug-25 16:22N 44°36' W 002°18'2211.9
2015-Aug-25 14:32N 44°57' W 002°09'18 2.5
2015-Aug-25 07:15N 44°51' W 001°45'8 8.5
2015-Aug-25 06:16N 44°59' W 001°45'143 3.4
2015-Aug-23 12:33N 47°13' W 002°58'10 9.9
2015-Aug-23 11:33N 47°21' W 003°07'1 0.7
2015-Aug-23 10:32N 47°21' W 003°08'0 0.1
2015-Aug-23 09:29N 47°21' W 003°08'0 0.0
2015-Aug-23 08:32N 47°21' W 003°08'0 0.0
2015-Aug-23 07:31N 47°21' W 003°08'0 0.0
2015-Aug-23 06:31N 47°21' W 003°08'1 1.2
2015-Aug-23 05:34N 47°22' W 003°08'9 8.6
2015-Aug-23 04:34N 47°30' W 003°13'1110.5
2015-Aug-23 03:34N 47°39' W 003°21'3 2.5
2015-Aug-23 02:32N 47°40' W 003°25'0 0.0
2015-Aug-23 01:32N 47°40' W 003°25'0 0.0
2015-Aug-23 00:32N 47°40' W 003°25'0 0.0
2015-Aug-22 23:32N 47°40' W 003°25'0 0.0
2015-Aug-22 22:32N 47°40' W 003°25'0 0.0
2015-Aug-22 21:32N 47°40' W 003°25'0 0.0
2015-Aug-22 20:32N 47°40' W 003°25'0 0.0
2015-Aug-22 19:32N 47°40' W 003°25'0 0.0
2015-Aug-22 18:31N 47°40' W 003°25'1 0.8
2015-Aug-22 17:33N 47°40' W 003°26'8 7.9
2015-Aug-22 16:33N 47°40' W 003°38'  
Track history (hours):
 
Tides and Currents Weather Stations Pressure Air Temp Water Temp Dewpoint Dewpoint Depression Visibility Wind Speed Wind Dir Waves Ship Positions

Sea Cloud II

Ship's website: http://www.seacloud.com/en/the-ships/sea-cloud-ii.html

Last reported at 2015-Sep-01 16:24 UTC. Time now 2015-Sep-03 23:31 UTC.
Position N 36°41' W 008°08'.

Length 117 m; draft 6 m.

Type: Passenger vessel. MMSI: 248953000.

Date/timePositionNaut miles runAvg speedWind from/ knotsBaromVisibWave heightAir tempDewpointWater temp
2015-Sep-01 16:24N 36°41' W 008°08'87 5.4
2015-Sep-01 00:12N 37°39' W 009°30'812.2
2015-Aug-31 23:33N 37°47' W 009°29'1212.3
2015-Aug-31 22:33N 37°59' W 009°28'1312.6
2015-Aug-31 21:33N 38°11' W 009°26'1211.9
2015-Aug-31 20:33N 38°23' W 009°25'1212.1
2015-Aug-31 19:33N 38°35' W 009°24'1110.7
2015-Aug-31 18:33N 38°41' W 009°12'4 3.5
2015-Aug-31 17:25N 38°43' W 009°07'0 0.0
2015-Aug-31 15:04N 38°43' W 009°07'0 0.0
2015-Aug-31 13:22N 38°43' W 009°07'0 0.0
2015-Aug-31 12:04N 38°43' W 009°07'0 0.0
2015-Aug-31 11:28N 38°43' W 009°07'0 0.0
2015-Aug-31 10:22N 38°43' W 009°07'0 0.0
2015-Aug-31 09:28N 38°43' W 009°07'0 0.0
2015-Aug-31 08:04N 38°43' W 009°07'0 0.0
2015-Aug-31 07:16N 38°43' W 009°07'4 5.1
2015-Aug-31 06:33N 38°41' W 009°12'6 6.3
2015-Aug-31 05:33N 38°39' W 009°19'8 7.8
2015-Aug-31 04:33N 38°37' W 009°29'1111.2
2015-Aug-31 03:33N 38°40' W 009°43'1212.0
2015-Aug-31 02:33N 38°52' W 009°44'1211.9
2015-Aug-31 01:33N 39°04' W 009°43'1211.8
2015-Aug-31 00:33N 39°16' W 009°43'6412.2
2015-Aug-30 19:21N 40°16' W 009°16'1012.6
2015-Aug-30 18:33N 40°25' W 009°10'51 3.8
2015-Aug-30 05:06N 41°14' W 008°51'4 6.5
2015-Aug-30 04:33N 41°17' W 008°52'7 6.7
2015-Aug-30 03:33N 41°24' W 008°55'7 6.6
2015-Aug-30 02:33N 41°30' W 008°57'7 6.5
2015-Aug-30 01:33N 41°36' W 008°60'6 6.4
2015-Aug-30 00:33N 41°42' W 009°02'7 6.5
2015-Aug-29 23:32N 41°49' W 009°04'9 7.2
2015-Aug-29 22:19N 41°57' W 009°03'  
2015-Aug-27 06:12N 43°46' W 005°53'6 8.7
2015-Aug-27 05:32N 43°45' W 005°45'1010.3
2015-Aug-27 04:32N 43°44' W 005°31'1010.2
2015-Aug-27 03:33N 43°43' W 005°17'1010.3
2015-Aug-27 02:33N 43°42' W 005°03'90 3.8
2015-Aug-26 02:31N 43°34' W 002°59'69 6.8
2015-Aug-25 16:22N 44°36' W 002°18'2211.9
2015-Aug-25 14:32N 44°57' W 002°09'18 2.5
2015-Aug-25 07:15N 44°51' W 001°45'8 8.5
2015-Aug-25 06:16N 44°59' W 001°45'143 3.4
2015-Aug-23 12:33N 47°13' W 002°58'10 9.9
2015-Aug-23 11:33N 47°21' W 003°07'1 0.7
2015-Aug-23 10:32N 47°21' W 003°08'0 0.1
2015-Aug-23 09:29N 47°21' W 003°08'0 0.0
2015-Aug-23 08:32N 47°21' W 003°08'0 0.0
2015-Aug-23 07:31N 47°21' W 003°08'0 0.0
2015-Aug-23 06:31N 47°21' W 003°08'1 1.2
2015-Aug-23 05:34N 47°22' W 003°08'9 8.6
2015-Aug-23 04:34N 47°30' W 003°13'1110.5
2015-Aug-23 03:34N 47°39' W 003°21'3 2.5
2015-Aug-23 02:32N 47°40' W 003°25'0 0.0
2015-Aug-23 01:32N 47°40' W 003°25'0 0.0
2015-Aug-23 00:32N 47°40' W 003°25'0 0.0
2015-Aug-22 23:32N 47°40' W 003°25'0 0.0
2015-Aug-22 22:32N 47°40' W 003°25'0 0.0
2015-Aug-22 21:32N 47°40' W 003°25'0 0.0
2015-Aug-22 20:32N 47°40' W 003°25'0 0.0
2015-Aug-22 19:32N 47°40' W 003°25'0 0.0
2015-Aug-22 18:31N 47°40' W 003°25'1 0.8
2015-Aug-22 17:33N 47°40' W 003°26'8 7.9
2015-Aug-22 16:33N 47°40' W 003°38'  

Dump ship's entire track history